Flight Track Log - Related Links

Times and Time Zones

All times are in EDT time to prevent confusion due to time zone crossing. See the TAM3211 flight status page for this flight to view local times or setup timezone preferences in your user account.

Time Position Orientation Groundspeed Altitude Reporting Facility
EDT Latitude Longitude Course Direction KTS MPH feet Rate Location/Type
Thu 05:03:27 AM -19.6330 -43.9700 148° Southeast 135 155  Level FlightAware ADS-B
Thu 05:03:47 AM -19.6430 -43.9610 140° Southeast 152 175 3,000 6,000 Climbing FlightAware ADS-B
Thu 05:04:02 AM -19.6530 -43.9540 147° Southeast 164 189 3,500 1,920 Climbing FlightAware ADS-B
Thu 05:04:12 AM -19.6600 -43.9510 158° South 167 192 3,800 2,160 Climbing FlightAware ADS-B
Thu 05:04:27 AM -19.6710 -43.9480 166° South 168 193 4,400 2,160 Climbing FlightAware ADS-B
Thu 05:04:37 AM -19.6780 -43.9460 165° South 172 198 4,700 1,500 Climbing FlightAware ADS-B
Thu 05:04:47 AM -19.6850 -43.9400 141° Southeast 180 207 4,900 1,200 Climbing FlightAware ADS-B
Thu 05:04:52 AM -19.6870 -43.9360 118° Southeast 185 213 5,000 1,200 Climbing FlightAware ADS-B
Thu 05:04:57 AM -19.6870 -43.9310 90° East 188 216 5,100 1,400 Climbing FlightAware ADS-B
Thu 05:05:22 AM -19.6740 -43.9130 53° Northeast 218 251 5,700 1,400 Climbing FlightAware ADS-B
Thu 05:05:27 AM -19.6690 -43.9120 11° North 222 255 5,800 2,100 Climbing FlightAware ADS-B
Thu 05:05:42 AM -19.6520 -43.9110 North 244 281 6,400 2,400 Climbing FlightAware ADS-B
Thu 05:06:07 AM -19.6240 -43.9120 358° North 275 316 7,400 2,743 Climbing FlightAware ADS-B
Thu 05:06:17 AM -19.6110 -43.9180 337° Northwest 280 322 8,000 3,600 Climbing FlightAware ADS-B
Thu 05:06:22 AM -19.6050 -43.9220 328° Northwest 280 322 8,300 4,286 Climbing FlightAware ADS-B
Thu 05:06:31 AM -19.5960 -43.9320 314° West 283 326 9,000 4,000 Climbing FlightAware ADS-B
Thu 05:06:37 AM -19.5940 -43.9370 293° West 284 327 9,300 3,273 Climbing FlightAware ADS-B
Thu 05:06:42 AM -19.5900 -43.9450 298° West 286 329 9,600 2,864 Climbing FlightAware ADS-B
Thu 05:07:21 AM -19.5730 -44.0000 288° West 316 364 11,400 2,441 Climbing FlightAware ADS-B
Thu 05:07:41 AM -19.5680 -44.0300 280° West 346 398 12,000 2,100 Climbing FlightAware ADS-B
Thu 05:08:01 AM -19.5760 -44.0660 257° West 359 413 12,800 2,333 Climbing FlightAware ADS-B
Thu 05:08:17 AM -19.5910 -44.0860 231° Southwest 361 415 13,400 2,348 Climbing FlightAware ADS-B
Thu 05:08:47 AM -19.6280 -44.1240 224° Southwest 374 430 14,600 2,400 Climbing FlightAware ADS-B
Thu 05:09:27 AM -19.6750 -44.1750 226° Southwest 381 438 16,200 2,919 Climbing FlightAware ADS-B
Thu 05:10:01 AM -19.7200 -44.2240 226° Southwest 373 429 18,200 2,677 Climbing FlightAware ADS-B
Thu 05:10:32 AM -19.7570 -44.2640 225° Southwest 386 444 19,100 2,031 Climbing FlightAware ADS-B
Thu 05:11:06 AM -19.8010 -44.3110 225° Southwest 394 453 20,400 2,480 Climbing FlightAware ADS-B
Thu 05:11:47 AM -19.8510 -44.3660 226° Southwest 392 451 22,200 2,486 Climbing FlightAware ADS-B
Thu 05:12:16 AM -19.8900 -44.4070 225° Southwest 392 451 23,300 1,971 Climbing FlightAware ADS-B
Thu 05:12:57 AM -19.9420 -44.4650 226° Southwest 403 464 24,500 1,875 Climbing FlightAware ADS-B
Thu 05:13:36 AM -19.9950 -44.5220 225° Southwest 406 467 25,800 1,652 Climbing FlightAware ADS-B
Thu 05:14:06 AM -20.0320 -44.5660 228° Southwest 417 480 26,400 1,393 Climbing FlightAware ADS-B
Thu 05:14:32 AM -20.0530 -44.6120 244° Southwest 422 486 27,100 1,800 Climbing FlightAware ADS-B
Thu 05:15:06 AM -20.0800 -44.6780 246° West 421 484 28,200 2,080 Climbing FlightAware ADS-B
Thu 05:15:47 AM -20.1130 -44.7540 245° Southwest 416 479 29,700 2,400 Climbing FlightAware ADS-B
Thu 05:16:16 AM -20.1360 -44.8100 246° West 408 470 31,000 1,938 Climbing FlightAware ADS-B
Thu 05:16:52 AM -20.1630 -44.8740 246° West 412 474 31,800 845 Climbing FlightAware ADS-B
Thu 05:17:27 AM -20.1910 -44.9390 245° Southwest 405 466 32,000 171 Climbing FlightAware ADS-B
Thu 05:18:02 AM -20.2170 -45.0010 246° West 408 470 32,000  Level FlightAware ADS-B
Thu 05:18:37 AM -20.2440 -45.0660 246° West 410 472 32,000  Level FlightAware ADS-B
Thu 05:19:12 AM -20.2710 -45.1310 246° West 410 472 32,000  Level FlightAware ADS-B
Thu 05:19:47 AM -20.2990 -45.1970 246° West 410 472 32,000  Level FlightAware ADS-B
Thu 05:20:22 AM -20.3320 -45.2580 240° Southwest 410 472 32,000  Level FlightAware ADS-B
Thu 05:21:02 AM -20.3780 -45.3200 232° Southwest 411 473 32,000  Level FlightAware ADS-B
Thu 05:21:32 AM -20.4150 -45.3660 229° Southwest 412 474 32,000  Level FlightAware ADS-B
Thu 05:22:06 AM -20.4590 -45.4210 230° Southwest 413 475 32,000  Level FlightAware ADS-B
Thu 05:22:42 AM -20.5030 -45.4750 229° Southwest 414 476 32,000  Level FlightAware ADS-B
Thu 05:23:22 AM -20.5530 -45.5370 229° Southwest 415 478 32,000  Level FlightAware ADS-B
Thu 05:23:52 AM -20.5900 -45.5830 229° Southwest 415 478 32,000  Level FlightAware ADS-B
Thu 05:24:26 AM -20.6340 -45.6380 229° Southwest 414 476 32,000  Level FlightAware ADS-B
Thu 05:25:02 AM -20.6770 -45.6920 230° Southwest 413 475 32,000  Level FlightAware ADS-B
Thu 05:25:36 AM -20.7190 -45.7430 229° Southwest 412 474 32,000  Level FlightAware ADS-B
Thu 05:26:16 AM -20.7700 -45.8080 230° Southwest 411 473 32,000  Level FlightAware ADS-B
Thu 05:26:52 AM -20.8140 -45.8620 229° Southwest 411 473 32,000  Level FlightAware ADS-B
Thu 05:27:22 AM -20.8490 -45.9060 230° Southwest 412 474 32,000  Level FlightAware ADS-B
Thu 05:27:56 AM -20.8950 -45.9640 230° Southwest 412 474 32,000  Level FlightAware ADS-B
Thu 05:28:37 AM -20.9430 -46.0240 229° Southwest 412 474 32,000  Level FlightAware ADS-B
Thu 05:29:07 AM -20.9810 -46.0710 229° Southwest 412 474 32,000  Level FlightAware ADS-B
Thu 05:29:42 AM -21.0230 -46.1230 229° Southwest 412 474 32,000  Level FlightAware ADS-B
Thu 05:30:17 AM -21.0680 -46.1800 230° Southwest 412 474 32,000  Level FlightAware ADS-B
Thu 05:30:57 AM -21.1170 -46.2430 230° Southwest 413 475 32,000  Level FlightAware ADS-B
Thu 05:31:27 AM -21.1550 -46.2900 229° Southwest 413 475 32,000  Level FlightAware ADS-B
Thu 05:32:02 AM -21.1980 -46.3440 229° Southwest 412 474 32,000  Level FlightAware ADS-B
Thu 05:32:42 AM -21.2480 -46.4070 230° Southwest 411 473 32,000  Level FlightAware ADS-B
Thu 05:33:12 AM -21.2800 -46.4470 229° Southwest 410 472 32,000  Level FlightAware ADS-B
Thu 05:33:47 AM -21.3280 -46.5080 230° Southwest 410 472 32,000  Level FlightAware ADS-B
Thu 05:34:22 AM -21.3710 -46.5620 229° Southwest 408 470 32,000  Level FlightAware ADS-B
Thu 05:35:02 AM -21.4190 -46.6230 230° Southwest 408 470 32,000  Level FlightAware ADS-B
Thu 05:35:32 AM -21.4540 -46.6670 229° Southwest 406 467 32,000  Level FlightAware ADS-B
Thu 05:36:07 AM -21.4980 -46.7240 230° Southwest 406 467 32,000  Level FlightAware ADS-B
Thu 05:36:42 AM -21.5400 -46.7770 230° Southwest 405 466 32,000  Level FlightAware ADS-B
Thu 05:37:17 AM -21.5830 -46.8310 229° Southwest 406 467 32,000  Level FlightAware ADS-B
Thu 05:37:47 AM -21.6230 -46.8740 225° Southwest 408 470 32,000  Level FlightAware ADS-B
Thu 05:38:24 AM -21.6880 -46.9110 208° Southwest 411 473 32,000  Level FlightAware ADS-B
Thu 05:38:56 AM -21.7410 -46.9420 209° Southwest 410 472 32,000  Level FlightAware ADS-B
Thu 05:39:32 AM -21.8020 -46.9770 208° Southwest 409 471 32,000  Level FlightAware ADS-B
Thu 05:40:08 AM -21.8610 -47.0120 209° Southwest 409 471 32,000  Level FlightAware ADS-B
Thu 05:40:40 AM -21.9130 -47.0420 208° Southwest 409 471 32,000  Level FlightAware ADS-B
Thu 05:41:18 AM -21.9780 -47.0800 208° Southwest 409 471 32,000  Level FlightAware ADS-B
Thu 05:41:54 AM -22.0380 -47.1150 208° Southwest 409 471 32,000 -167 Level FlightAware ADS-B
Thu 05:42:30 AM -22.0990 -47.1500 208° Southwest 409 471 31,800 -529 Descending FlightAware ADS-B
Thu 05:43:02 AM -22.1520 -47.1810 208° Southwest 411 473 31,400 -806 Descending FlightAware ADS-B
Thu 05:43:37 AM -22.2120 -47.2160 208° Southwest 418 481 30,900 -930 Descending FlightAware ADS-B
Thu 05:44:13 AM -22.2710 -47.2510 209° Southwest 422 486 30,300 -930 Descending FlightAware ADS-B
Thu 05:44:48 AM -22.3320 -47.2860 208° Southwest 424 488 29,800 -971 Descending FlightAware ADS-B
Thu 05:45:21 AM -22.3900 -47.3210 209° Southwest 422 486 29,200 -1,059 Descending FlightAware ADS-B
Thu 05:45:56 AM -22.4490 -47.3550 208° Southwest 411 473 28,600 -1,250 Descending FlightAware ADS-B
Thu 05:46:33 AM -22.5120 -47.3920 208° Southwest 406 467 27,700 -2,261 Descending FlightAware ADS-B
Thu 05:47:05 AM -22.5640 -47.4230 209° Southwest 411 473 26,000 -3,094 Descending FlightAware ADS-B
Thu 05:47:37 AM -22.6200 -47.4520 206° Southwest 417 480 24,400 -2,417 Descending FlightAware ADS-B
Thu 05:48:17 AM -22.6940 -47.4520 180° South 411 473 23,100 -2,113 Descending FlightAware ADS-B
Thu 05:48:48 AM -22.7460 -47.4290 158° South 409 471 21,900 -2,743 Descending FlightAware ADS-B
Thu 05:49:27 AM -22.8160 -47.3970 157° South 405 466 19,900 -2,960 Descending FlightAware ADS-B
Thu 05:50:03 AM -22.8750 -47.3700 157° South 405 466 18,200 -3,000 Descending FlightAware ADS-B
Thu 05:50:37 AM -22.9380 -47.3400 156° South 406 467 16,400 -3,000 Descending FlightAware ADS-B
Thu 05:51:13 AM -23.0010 -47.3110 157° South 404 465 14,700 -2,743 Descending FlightAware ADS-B
Thu 05:51:47 AM -23.0610 -47.2830 157° South 405 466 13,200 -2,143 Descending FlightAware ADS-B
Thu 05:52:23 AM -23.1210 -47.2550 157° South 386 444 12,200 -1,309 Descending FlightAware ADS-B
Thu 05:52:42 AM -23.1520 -47.2370 152° Southeast 389 448 12,000 -667 Descending FlightAware ADS-B
Thu 05:53:17 AM -23.1990 -47.1930 139° Southeast 361 415 11,600 -686 Descending FlightAware ADS-B
Thu 05:53:52 AM -23.2400 -47.1550 140° Southeast 328 377 11,200 -771 Descending FlightAware ADS-B
Thu 05:54:27 AM -23.2770 -47.1200 139° Southeast 316 364 10,700 -943 Descending FlightAware ADS-B
Thu 05:55:02 AM -23.3180 -47.0810 139° Southeast 305 351 10,100 -982 Descending FlightAware ADS-B
Thu 05:55:22 AM -23.3410 -47.0600 140° Southeast 304 350 9,800 -667 Descending FlightAware ADS-B
Thu 05:55:47 AM -23.3680 -47.0350 140° Southeast 304 350 9,600 -400 Descending FlightAware ADS-B
Thu 05:56:07 AM -23.3890 -47.0150 139° Southeast 300 345 9,500 -429 Descending FlightAware ADS-B
Thu 05:56:29 AM -23.4110 -46.9940 139° Southeast 303 349 9,300 -600 Descending FlightAware ADS-B
Thu 05:56:47 AM -23.4330 -46.9740 140° Southeast 305 351 9,100 -545 Descending FlightAware ADS-B
Thu 05:57:02 AM -23.4500 -46.9580 139° Southeast 306 352 9,000 -171 Descending FlightAware ADS-B
Thu 05:57:22 AM -23.4710 -46.9380 139° Southeast 305 351 9,000 -343 Level FlightAware ADS-B
Thu 05:57:37 AM -23.4880 -46.9230 141° Southeast 306 352 8,800 -600 Descending FlightAware ADS-B
Thu 05:58:02 AM -23.5150 -46.8970 139° Southeast 309 356 8,600 -600 Descending FlightAware ADS-B
Thu 05:58:17 AM -23.5310 -46.8810 137° Southeast 306 352 8,400 -514 Descending FlightAware ADS-B
Thu 05:58:37 AM -23.5520 -46.8620 140° Southeast 286 329 8,300 -533 Descending FlightAware ADS-B
Thu 05:59:02 AM -23.5760 -46.8380 137° Southeast 269 310 8,000 -514 Descending FlightAware ADS-B
Thu 05:59:12 AM -23.5860 -46.8290 140° Southeast 263 303 8,000 -500 Level FlightAware ADS-B
Thu 05:59:38 AM -23.6090 -46.8060 138° Southeast 261 300 7,700 -522 Descending FlightAware ADS-B
Thu 05:59:58 AM -23.6270 -46.7890 139° Southeast 261 300 7,600 -462 Descending FlightAware ADS-B
Thu 06:00:17 AM -23.6450 -46.7710 138° Southeast 262 302 7,400 -462 Descending FlightAware ADS-B
Thu 06:00:37 AM -23.6630 -46.7520 136° Southeast 248 285 7,300 -133 Descending FlightAware ADS-B
Thu 06:01:02 AM -23.6830 -46.7320 138° Southeast 244 281 7,300  Level FlightAware ADS-B
Thu 06:01:22 AM -23.7000 -46.7150 138° Southeast 247 284 7,300 -450 Level FlightAware ADS-B
Thu 06:01:42 AM -23.7180 -46.6980 139° Southeast 241 277 7,000 -878 Descending FlightAware ADS-B
Thu 06:02:03 AM -23.7350 -46.6810 138° Southeast 237 273 6,700 -800 Descending FlightAware ADS-B
Thu 06:02:27 AM -23.7550 -46.6620 139° Southeast 241 277 6,400 -682 Descending FlightAware ADS-B
Thu 06:02:47 AM -23.7720 -46.6460 139° Southeast 235 270 6,200 -600 Descending FlightAware ADS-B
Thu 06:03:07 AM -23.7880 -46.6290 136° Southeast 227 261 6,000 -692 Descending FlightAware ADS-B
Thu 06:03:13 AM -23.7910 -46.6240 123° Southeast 226 260 5,900 -400 Descending FlightAware ADS-B
Thu 06:03:22 AM -23.7930 -46.6150 104° East 219 252 5,900 -621 Level FlightAware ADS-B
Thu 06:03:42 AM -23.7870 -46.5940 73° East 198 228 5,600 -686 Descending FlightAware ADS-B
Thu 06:03:57 AM -23.7800 -46.5820 57° Northeast 192 221 5,500 -686 Descending FlightAware ADS-B
Thu 06:04:17 AM -23.7690 -46.5690 47° Northeast 163 188 5,200 -720 Descending FlightAware ADS-B
Thu 06:04:22 AM -23.7640 -46.5690 360° North 161 185 5,200  Level FlightAware ADS-B
Thu 06:04:28 AM -23.7610 -46.5690 360° North 148 170 5,200 -400 Level FlightAware ADS-B
Thu 06:04:37 AM -23.7550 -46.5700 351° North 140 161 5,100 -632 Descending FlightAware ADS-B
Thu 06:04:47 AM -23.7490 -46.5730 335° Northwest 134 154 5,000 -400 Descending FlightAware ADS-B
Thu 06:05:07 AM -23.7380 -46.5800 330° Northwest 129 148 4,900 -450 Descending FlightAware ADS-B
Thu 06:05:27 AM -23.7280 -46.5870 327° Northwest 119 137 4,700 -750 Descending FlightAware ADS-B
Thu 06:05:47 AM -23.7180 -46.5930 331° Northwest 118 136 4,400 -750 Descending FlightAware ADS-B
Thu 06:06:07 AM -23.7090 -46.5990 329° Northwest 105 121 4,200 -600 Descending FlightAware ADS-B
Thu 06:06:27 AM -23.7000 -46.6060 325° Northwest 105 121 4,000 -600 Descending FlightAware ADS-B
Thu 06:06:47 AM -23.6910 -46.6120 329° Northwest 120 138 3,800 -692 Descending FlightAware ADS-B
Thu 06:07:19 AM -23.6750 -46.6230 328° Northwest 124 143 3,400 -652 Descending FlightAware ADS-B
Thu 06:07:33 AM -23.6680 -46.6280 327° Northwest 124 143 3,300 -667 Descending FlightAware ADS-B
Thu 06:07:55 AM -23.6580 -46.6350 327° Northwest 128 147 3,000 -735 Descending FlightAware ADS-B
Thu 06:08:22 AM -23.6440 -46.6440 330° Northwest 122 140 2,700 -536 Descending FlightAware ADS-B
Thu 06:08:51 AM -23.6360 -46.6500 326° Northwest 129 148 2,500 -414 Descending FlightAware ADS-B
Thu 06:09:07 AM -23.6260 -46.6570 327° Northwest 129 148 -9,375 Descending FlightAware ADS-B
Thu 06:10:18 AM -23.6230 -46.6600 180° South 129 148  Level FlightAware ADS-B
Thu 06:10:46 AM -23.6140 -46.6480 51° Northeast 129 148  Level FlightAware ADS-B
Thu 06:11:55 AM -23.6240 -46.6600 180° South 129 148  Level FlightAware ADS-B
Thu 06:12:17 AM -23.6240 -46.6590 90° East 129 148  Level FlightAware ADS-B
Thu 06:12:39 AM -23.6250 -46.6600 222° Southwest 129 148  Level FlightAware ADS-B
Thu 06:13:27 AM -23.6240 -46.6460 86° East 129 148  Level FlightAware ADS-B
Thu 06:13:46 AM -23.6250 -46.6600 266° West 129 148  Level FlightAware ADS-B
Thu 06:14:12 AM -23.6240 -46.6460 86° East 129 148  Level FlightAware ADS-B
Thu 06:15:49 AM -23.6250 -46.6600 266° West 129 148  Level FlightAware ADS-B
Thu 06:16:17 AM -23.6230 -46.6440 82° East 129 148  Level FlightAware ADS-B

Login

Don't have an account? Register now (free) for customized features, flight alerts, and more!